Share

Vicksburg, MS

DANA RD 1 (KMSVICKS14) Elev 236 ft | 32.27 °N, 90.88 °W | Change Station
Active Advisory: Flood Warning

Current weather conditions updated 1 minute ago

Overcast
Overcast
66.0 °F
Feels Like 66.0 °F
N
6.3
Wind Variable Wind from North
Sunrise 6:30 AM
Sunset 7:35 PM
Moon Waning Gibbous

Today is forecast to be Warmer than yesterday.

Pressure 30.22 in
Visibility 10.0 miles
Clouds Overcast 7500 ft
Dew Point 59 °F
Humidity 77%
Rainfall 0.00 in
Snow Depth Not available.
UV 2 out of 16
Pollen 7.00 out of 12
Air Quality Not available.
Flu Activity No Activity
METAR KTVR 181453Z AUTO 04007KT 10SM OVC075 19/14 A3020 RMK AO2 SLP233 T01890139 50006 TSNO

More Conditions Fewer Conditions

Pressure 30.22 in
Visibility 10.0 miles
Clouds Overcast 7500 ft
Dew Point 59 °F
Humidity 77%
Rainfall 0.00 in
Snow Depth Not available.
UV 2 out of 16
Pollen 7.00 out of 12
Air Quality Not available.
Flu Activity No Activity
METAR KTVR 181453Z AUTO 04007KT 10SM OVC075 19/14 A3020 RMK AO2 SLP233 T01890139 50006 TSNO

More Conditions Fewer Conditions

10-Day Forecast

Almanac

Astronomy

Apr. 18, 2014 Rise Set
Actual Time 6:30 AM CDT 7:35 PM CDT
Civil Twilight 6:05 AM CDT 8:00 PM CDT
Nautical Twilight 5:35 AM CDT 8:30 PM CDT
Astronomical Twilight 5:04 AM CDT 9:01 PM CDT
Moon 11:12 PM CDT 9:00 AM CDT
Length of Visible Light 13h 55m
Length of Day
13h 04m
Tomorrow will be 1m 51s longer.
Waning Gibbous, 87% of the Moon is Illuminated
Today
Waning Gibbous
Apr 22
Last Quarter
Apr 29
New
May 6
First Quarter
May 14
Full

Today's Extremes

State Highs State Lows

Community

  • What's for Lunch?
    What's for Lunch?
  • SUNRISE THROUGH THE TREES.
    SUNRISE THROUGH THE TREES.
  • Dog Wood Blossoms
    Dog Wood Blossoms
  • Morning Light
    Morning Light
  • New Day
    New Day

WunderPhotos

Upload Photos

1,702,383 photos uploaded!

Nearby

Snow Depth

Station Depth Elevation
No new snow has been reported.

Coastal Water Temperatures

Place Temperature
No Stations Reporting

Earthquake Activity

City Distance Mag. Time & Date
No recent earthquake activity has been reported nearby.
Minimum magnitude displayed is 2.5.

Nearby Weather Stations

Station Location Temp. Dew Point Humidity Wind Precip. Elev Updated Type
DANA RD 1, Vicksburg, MS 66.0 °F 59 °F 77% North  at  6.3 mph - / hr 236 ft 10:03 AM CDT Normal

Show More Stations Show Fewer Stations

What do you think?

We're not finished. Please let us know what you like, what you don't like, and what you are still missing.